Casper, WY (82601)

10:05 PM MDT on April 28, 2017 (GMT -0600)
Grant Avenue | | Change Station

Elev 5164 ft 42.84 °N, 106.32 °W | Updated 5 minutes ago

Overcast
Overcast
31.3 °F
Feels Like 31 °F
N
1.2
Wind Variable Wind from SE
Gusts 5.6 mph

Today
High -- | Low -- °F
--% Chance of Precip.
Yesterday
High -- | Low -- °F
Precip. -- in
Pressure 30.22 in
Visibility 2.5 miles
Clouds Scattered Clouds 900 ft
Mostly Cloudy 1600 ft
Overcast 2000 ft
Windchill 31 °F
Dew Point 28 °F
Humidity 87%
Rainfall 0.13 in
Snow Depth Not available.
6:03 AM 8:02 PM
Waxing Crescent, 10% visible
METAR KCPR 290353Z AUTO 06010KT 2 1/2SM -SN BR SCT009 BKN016 OVC020 M02/M03 A3015 RMK AO2 SLP233 P0000 T10171028
Pressure 30.22 in
Visibility 2.5 miles
Clouds Scattered Clouds 900 ft
Mostly Cloudy 1600 ft
Overcast 2000 ft
Windchill 31 °F
Dew Point 28 °F
Humidity 87%
Rainfall 0.13 in
Snow Depth Not available.
6:03 AM 8:02 PM
Waxing Crescent, 10% visible
METAR KCPR 290353Z AUTO 06010KT 2 1/2SM -SN BR SCT009 BKN016 OVC020 M02/M03 A3015 RMK AO2 SLP233 P0000 T10171028

Get Severe Weather Alerts

Thanks for signing up!

Be on the lookout for a verification email in your inbox.

You'll start receiving the daily forecast at 8 AM.

×

10-Day Weather Forecast

Almanac

Astronomy

Apr. 28, 2017 Rise Set
Actual Time
Civil Twilight
Nautical Twilight
Astronomical Twilight
Moon
Length of Visible Light
Length of Day
Tomorrow will be .
, % of the Moon is Illuminated

Today's Extremes

State Highs State Lows

Community

WunderPhotos

WunderBlog® & News

Nearby

Air Quality

  Air Quality AQ Index Pollutant
Not available.

Snow Depth

Station Depth Elevation

Earthquake Activity

City Distance Mag. Time & Date
Minimum magnitude displayed is 2.5.

Coastal Water Temperatures

Place Temperature

Stations

Nearby Weather Stations

Station Location Temp. Windchill Dew Point Humidity Wind Precip. Elev Updated Type
                   

Watches & Warnings

There are currently no watches in effect.